createdAt,value
2023-04-16T00:00:48.719Z,12.40
2023-04-16T00:05:56.292Z,13.80
2023-04-16T00:11:00.144Z,12.70
2023-04-16T00:16:03.808Z,13.32
2023-04-16T00:21:08.897Z,14.65
2023-04-16T00:26:12.564Z,13.18
2023-04-16T00:31:19.254Z,12.52
2023-04-16T00:36:25.514Z,12.88
2023-04-16T00:41:29.208Z,13.32
2023-04-16T00:46:33.805Z,13.60
2023-04-16T00:51:38.871Z,13.93
2023-04-16T00:56:42.895Z,12.45
2023-04-16T01:01:46.476Z,14.25
2023-04-16T01:06:52.228Z,14.00
2023-04-16T01:11:55.921Z,14.93
2023-04-16T01:16:59.580Z,15.93
2023-04-16T01:22:04.784Z,16.65
2023-04-16T01:27:08.432Z,21.88
2023-04-16T01:32:11.825Z,19.35
2023-04-16T01:42:22.636Z,16.07
2023-04-16T01:47:27.422Z,16.05
2023-04-16T01:52:33.151Z,15.50
2023-04-16T01:57:36.849Z,14.45
2023-04-16T02:02:41.561Z,14.07
2023-04-16T02:07:46.671Z,14.43
2023-04-16T02:12:51.047Z,13.85
2023-04-16T02:17:57.024Z,13.83
2023-04-16T02:23:02.915Z,12.77
2023-04-16T02:28:06.439Z,13.00
2023-04-16T02:33:14.455Z,12.88
2023-04-16T02:38:29.413Z,12.05
2023-04-16T02:43:32.717Z,11.63
2023-04-16T02:48:35.914Z,10.88
2023-04-16T02:53:40.745Z,9.00
2023-04-16T02:58:44.036Z,9.23
2023-04-16T03:03:47.305Z,9.57
2023-04-16T03:08:51.913Z,10.13
2023-04-16T03:13:55.147Z,8.57
2023-04-16T03:18:58.810Z,9.48
2023-04-16T03:24:03.695Z,8.35
2023-04-16T03:29:07.683Z,8.63
2023-04-16T03:34:12.146Z,8.50
2023-04-16T03:39:18.532Z,9.85
2023-04-16T03:44:22.926Z,10.32
2023-04-16T03:49:27.016Z,9.75
2023-04-16T03:54:32.145Z,9.60
2023-04-16T03:59:47.365Z,9.30
2023-04-16T04:04:53.175Z,8.55
2023-04-16T04:09:58.236Z,7.47
2023-04-16T04:15:01.986Z,8.38
2023-04-16T04:20:06.516Z,7.95
2023-04-16T04:25:11.938Z,7.78
2023-04-16T04:30:15.285Z,7.13
2023-04-16T04:35:19.415Z,7.88
2023-04-16T04:40:25.721Z,7.35
2023-04-16T04:45:31.789Z,6.68
2023-04-16T04:50:37.481Z,7.53
2023-04-16T04:55:42.554Z,7.43
2023-04-16T05:00:45.913Z,7.97
2023-04-16T05:05:49.319Z,7.57
2023-04-16T05:10:54.020Z,7.05
2023-04-16T05:15:57.306Z,6.27
2023-04-16T05:21:00.594Z,6.72
2023-04-16T05:26:05.321Z,6.65
2023-04-16T05:31:09.001Z,4.88
2023-04-16T05:36:12.638Z,10.57
2023-04-16T05:41:17.795Z,6.05
2023-04-16T05:46:21.459Z,6.38
2023-04-16T05:51:27.307Z,5.32
2023-04-16T05:56:31.920Z,6.45
2023-04-16T06:01:35.218Z,6.47
2023-04-16T06:06:38.598Z,6.15
2023-04-16T06:11:43.320Z,5.43
2023-04-16T06:16:47.038Z,5.57
2023-04-16T06:21:50.399Z,5.00
2023-04-16T06:26:55.524Z,9.07
2023-04-16T06:37:02.720Z,10.10
2023-04-16T06:42:07.792Z,5.75
2023-04-16T06:47:11.548Z,6.40
2023-04-16T06:52:14.845Z,7.88
2023-04-16T06:57:19.562Z,8.38
2023-04-16T07:02:22.914Z,5.20
2023-04-16T07:07:26.301Z,4.55
2023-04-16T07:12:31.607Z,4.22
2023-04-16T07:17:34.844Z,4.72
2023-04-16T07:22:38.071Z,5.05
2023-04-16T07:27:42.726Z,5.85
2023-04-16T07:32:45.997Z,5.63
2023-04-16T07:37:49.189Z,4.60
2023-04-16T07:42:53.879Z,4.95
2023-04-16T07:47:57.184Z,5.20
2023-04-16T07:53:00.492Z,4.53
2023-04-16T07:58:06.835Z,5.03
2023-04-16T08:03:10.354Z,4.50
2023-04-16T08:08:14.119Z,4.43
2023-04-16T08:13:19.198Z,4.20
2023-04-16T08:18:23.015Z,3.70
2023-04-16T08:23:27.048Z,3.72
2023-04-16T08:28:32.260Z,3.53
2023-04-16T08:33:35.916Z,3.63
2023-04-16T08:38:39.216Z,3.42
2023-04-16T08:43:49.543Z,3.38
2023-04-16T08:48:56.556Z,3.83
2023-04-16T08:54:05.428Z,7.07
2023-04-16T08:59:11.134Z,3.45
2023-04-16T09:04:16.970Z,3.33
2023-04-16T09:09:22.651Z,2.58
2023-04-16T09:19:30.673Z,7.50
2023-04-16T09:24:35.500Z,8.00
2023-04-16T09:29:42.130Z,8.37
2023-04-16T09:35:06.597Z,8.13
2023-04-16T09:40:10.942Z,9.02
2023-04-16T09:45:15.966Z,7.23
2023-04-16T09:50:21.587Z,7.88
2023-04-16T09:55:28.879Z,8.48
2023-04-16T10:00:33.983Z,5.72
2023-04-16T10:05:37.639Z,6.55
2023-04-16T10:10:42.685Z,6.70
2023-04-16T10:15:47.804Z,6.23
2023-04-16T10:20:51.862Z,6.70
2023-04-16T10:25:57.596Z,6.38
2023-04-16T10:31:05.618Z,6.50
2023-04-16T10:36:10.881Z,5.75
2023-04-16T10:41:14.961Z,6.47
2023-04-16T10:46:24.987Z,6.47
2023-04-16T10:51:31.518Z,6.15
2023-04-16T10:56:36.253Z,5.95
2023-04-16T11:01:44.063Z,5.85
2023-04-16T11:07:05.777Z,4.68
2023-04-16T11:12:10.444Z,5.00
2023-04-16T11:17:15.105Z,4.63
2023-04-16T11:22:19.240Z,4.30
2023-04-16T11:27:23.329Z,4.80
2023-04-16T11:32:28.508Z,4.15
2023-04-16T11:37:36.405Z,4.70
2023-04-16T11:42:41.442Z,4.13
2023-04-16T11:47:50.295Z,3.70
2023-04-16T11:52:55.580Z,3.80
2023-04-16T11:57:59.167Z,3.72
2023-04-16T12:03:04.492Z,3.55
2023-04-16T12:08:09.778Z,3.58
2023-04-16T12:13:13.987Z,2.97
2023-04-16T12:18:20.206Z,2.83
2023-04-16T12:23:28.261Z,3.60
2023-04-16T12:28:32.719Z,3.80
2023-04-16T12:33:37.641Z,4.25
2023-04-16T12:38:40.853Z,4.10
2023-04-16T12:43:44.141Z,3.53
2023-04-16T12:48:49.841Z,3.13
2023-04-16T12:53:53.893Z,3.80
2023-04-16T12:58:57.207Z,4.00
2023-04-16T13:04:01.953Z,3.67
2023-04-16T13:09:05.858Z,4.20
2023-04-16T13:14:09.478Z,4.85
2023-04-16T13:19:16.238Z,5.55
2023-04-16T13:24:19.881Z,4.70
2023-04-16T13:29:23.201Z,4.85
2023-04-16T13:34:27.865Z,5.22
2023-04-16T13:39:31.199Z,5.63
2023-04-16T13:44:34.455Z,6.85
2023-04-16T13:49:39.485Z,6.30
2023-04-16T13:54:42.772Z,6.97
2023-04-16T13:59:56.179Z,7.35
2023-04-16T14:05:00.853Z,7.35
2023-04-16T14:10:04.576Z,7.30
2023-04-16T14:15:09.704Z,7.35
2023-04-16T14:20:15.711Z,7.50
2023-04-16T14:25:19.037Z,7.40
2023-04-16T14:30:22.701Z,7.32
2023-04-16T14:35:27.636Z,8.25
2023-04-16T14:40:31.273Z,7.90
2023-04-16T14:45:35.086Z,8.13
2023-04-16T14:50:43.635Z,7.30
2023-04-16T14:55:47.608Z,7.88
2023-04-16T15:00:51.301Z,8.10
2023-04-16T15:05:56.509Z,7.97
2023-04-16T15:10:59.878Z,6.90
2023-04-16T15:16:04.471Z,7.35
2023-04-16T15:21:11.109Z,8.35
2023-04-16T15:26:15.653Z,7.85
2023-04-16T15:31:20.900Z,6.68
2023-04-16T15:36:26.828Z,6.93
2023-04-16T15:41:31.900Z,7.35
2023-04-16T15:46:35.447Z,6.85
2023-04-16T15:51:40.790Z,6.60
2023-04-16T15:56:44.420Z,6.60
2023-04-16T16:01:48.090Z,7.10
2023-04-16T16:06:53.195Z,6.40
2023-04-16T16:11:58.265Z,6.35
2023-04-16T16:17:02.145Z,6.25
2023-04-16T16:22:08.252Z,4.95
2023-04-16T16:27:12.001Z,5.25
2023-04-16T16:32:16.436Z,5.30
2023-04-16T16:37:21.116Z,5.25
2023-04-16T16:42:25.055Z,4.83
2023-04-16T16:47:28.552Z,5.65
2023-04-16T16:52:33.624Z,5.63
2023-04-16T16:57:36.936Z,5.22
2023-04-16T17:02:40.719Z,4.80
2023-04-16T17:07:46.347Z,5.13
2023-04-16T17:17:54.141Z,4.78
2023-04-16T17:22:59.977Z,4.85
2023-04-16T17:28:03.980Z,5.35
2023-04-16T17:33:07.956Z,7.20
2023-04-16T17:38:13.115Z,7.75
2023-04-16T17:43:16.765Z,7.45
2023-04-16T17:48:20.429Z,7.35
2023-04-16T17:53:25.369Z,8.00
2023-04-16T17:58:33.227Z,7.97
2023-04-16T18:03:37.818Z,8.77
2023-04-16T18:08:43.082Z,8.37
2023-04-16T18:13:46.922Z,9.07
2023-04-16T18:18:51.021Z,8.82
2023-04-16T18:23:56.380Z,10.52
2023-04-16T18:29:00.481Z,10.30
2023-04-16T18:34:04.410Z,11.00
2023-04-16T18:39:09.622Z,11.05
2023-04-16T18:44:12.985Z,9.88
2023-04-16T18:49:16.647Z,9.73
2023-04-16T18:54:21.605Z,9.60
2023-04-16T18:59:25.432Z,8.93
2023-04-16T19:04:29.015Z,9.63
2023-04-16T19:09:34.057Z,10.07
2023-04-16T19:14:37.704Z,10.60
2023-04-16T19:19:41.519Z,13.75
2023-04-16T19:24:46.712Z,11.18
2023-04-16T19:29:50.343Z,11.57
2023-04-16T19:34:54.130Z,12.50
2023-04-16T19:39:59.687Z,12.93
2023-04-16T19:50:08.190Z,12.82
2023-04-16T19:55:13.431Z,12.03
2023-04-16T20:00:17.862Z,11.18
2023-04-16T20:05:21.675Z,11.75
2023-04-16T20:10:27.016Z,12.38
2023-04-16T20:15:30.749Z,10.63
2023-04-16T20:20:36.787Z,10.55
2023-04-16T20:25:44.286Z,10.70
2023-04-16T20:30:47.514Z,11.23
2023-04-16T20:35:52.210Z,10.25
2023-04-16T20:41:06.322Z,10.23
2023-04-16T20:46:10.034Z,9.30
2023-04-16T20:51:13.440Z,9.70
2023-04-16T20:56:18.798Z,10.23
2023-04-16T21:01:22.616Z,9.55
2023-04-16T21:06:26.342Z,10.73
2023-04-16T21:11:33.799Z,10.95
2023-04-16T21:16:37.643Z,10.70
2023-04-16T21:21:42.046Z,9.32
2023-04-16T21:26:47.140Z,10.35
2023-04-16T21:31:50.756Z,8.43
2023-04-16T21:36:54.441Z,9.43
2023-04-16T21:41:59.507Z,8.63
2023-04-16T21:47:03.177Z,9.43
2023-04-16T21:52:14.469Z,7.78
2023-04-16T21:57:19.212Z,7.72
2023-04-16T22:02:23.079Z,7.40
2023-04-16T22:07:27.613Z,7.45
2023-04-16T22:12:32.933Z,6.22
2023-04-16T22:17:36.640Z,4.95
2023-04-16T22:22:40.150Z,6.68
2023-04-16T22:27:45.260Z,7.18
2023-04-16T22:32:49.326Z,6.43
2023-04-16T22:37:52.994Z,6.43
2023-04-16T22:42:58.073Z,6.07
2023-04-16T22:48:01.757Z,6.45
2023-04-16T22:53:05.425Z,5.75
2023-04-16T22:58:11.210Z,6.93
2023-04-16T23:03:15.218Z,6.80
2023-04-16T23:08:18.858Z,6.80
2023-04-16T23:13:23.711Z,6.82
2023-04-16T23:18:27.321Z,7.00
2023-04-16T23:23:31.030Z,7.85
2023-04-16T23:28:36.004Z,8.25
2023-04-16T23:33:39.709Z,8.37
2023-04-16T23:38:43.629Z,8.73
2023-04-16T23:43:48.623Z,8.95
2023-04-16T23:48:53.164Z,8.48
2023-04-16T23:53:56.846Z,8.88
2023-04-16T23:59:01.848Z,10.82
